Time;durP1;ratioP1;P1;durP2;ratioP2;P2;SDS_P1;SDS_P2;PMS_P1;PMS_P2;Temp;Humidity;BMP_temperature;BMP_pressure;BME280_temperature;BME280_humidity;BME280_pressure;Samples;Min_cycle;Max_cycle;Signal;HPM_P1;HPM_P2
2021/12/17 00:01:00;;;;;;;47.67;12.90;;;;;;;-142.75;100.00;79827.47;5049660;28;20383;-67
2021/12/17 00:03:36;;;;;;;42.97;13.30;;;;;;;-142.75;100.00;79823.53;5051796;28;20398;-68
2021/12/17 00:06:13;;;;;;;56.28;12.05;;;;;;;-142.75;100.00;79825.50;5050292;28;20028;-67
2021/12/17 00:08:41;;;;;;;37.28;12.43;;;;;;;-142.75;100.00;79831.41;5051664;28;20123;-67
2021/12/17 00:11:07;;;;;;;45.73;12.53;;;;;;;-142.75;100.00;79833.38;5050825;28;20045;-68
2021/12/17 00:13:35;;;;;;;34.33;12.48;;;;;;;-142.75;100.00;79829.44;5064216;28;20100;-67
2021/12/17 00:16:01;;;;;;;39.10;12.57;;;;;;;-142.75;100.00;79825.50;5071162;28;20024;-67
2021/12/17 00:18:40;;;;;;;41.00;12.50;;;;;;;-142.75;100.00;79843.22;5070537;28;20017;-67
2021/12/17 00:43:56;;;;;;;31.63;10.97;;;;;;;-142.75;100.00;79831.41;5070783;28;20055;-68
2021/12/17 00:44:09;;;;;;;34.85;12.10;;;;;;;-142.75;100.00;79827.47;5070804;28;20040;-68
2021/12/17 00:48:56;;;;;;;25.70;11.70;;;;;;;-142.75;100.00;79809.75;5070624;28;20536;-67
2021/12/17 00:54:19;;;;;;;34.63;9.65;;;;;;;-142.75;100.00;79795.94;5070811;28;20039;-68
2021/12/17 00:56:50;;;;;;;28.35;11.15;;;;;;;-142.75;100.00;79799.91;5070097;28;20033;-68
2021/12/17 00:59:16;;;;;;;30.80;11.63;;;;;;;-142.75;100.00;79809.75;5068816;28;20020;-68
2021/12/17 01:01:41;;;;;;;41.47;11.60;;;;;;;-142.75;100.00;79793.97;5069818;28;20358;-67
2021/12/17 01:04:08;;;;;;;26.45;10.27;;;;;;;-142.75;100.00;79784.13;5070275;28;20382;-68
2021/12/17 01:06:33;;;;;;;49.97;12.00;;;;;;;-142.75;100.00;79790.03;5070819;28;20035;-67
2021/12/17 01:08:59;;;;;;;27.08;11.23;;;;;;;-142.75;100.00;79784.13;5070037;28;20024;-67
2021/12/17 01:11:25;;;;;;;28.70;9.98;;;;;;;-142.75;100.00;79780.19;5069995;28;20028;-68
2021/12/17 01:13:50;;;;;;;32.43;8.73;;;;;;;-142.75;100.00;79772.31;5068955;28;20032;-67
2021/12/17 01:16:16;;;;;;;18.33;8.93;;;;;;;-142.75;100.00;79776.25;5070271;28;20043;-67
2021/12/17 01:19:03;;;;;;;28.05;11.10;;;;;;;-142.75;100.00;79780.19;5070109;28;20024;-67
2021/12/17 01:21:37;;;;;;;23.33;9.05;;;;;;;-142.75;100.00;79770.34;5069746;28;20033;-68
2021/12/17 01:24:31;;;;;;;43.10;8.77;;;;;;;-142.75;100.00;79760.50;5070088;28;20131;-67
2021/12/17 01:35:23;;;;;;;43.03;7.93;;;;;;;-142.75;100.00;79764.44;5069661;28;20098;-67
2021/12/17 01:42:47;;;;;;;29.77;8.70;;;;;;;-142.75;100.00;79766.41;5069738;28;20036;-68
2021/12/17 01:45:12;;;;;;;30.75;8.77;;;;;;;-142.75;100.00;79768.38;5069698;28;20024;-68
2021/12/17 01:47:38;;;;;;;40.53;9.45;;;;;;;-142.75;100.00;79760.50;5069491;28;20032;-66
2021/12/17 02:01:12;;;;;;;34.65;11.45;;;;;;;-142.75;100.00;79744.72;5066325;28;20082;-66
2021/12/17 02:03:37;;;;;;;37.40;10.63;;;;;;;-142.75;100.00;79742.75;5068821;28;20429;-65
2021/12/17 02:06:04;;;;;;;41.47;11.35;;;;;;;-142.75;100.00;79748.66;5069571;28;20028;-65
2021/12/17 02:08:30;;;;;;;47.65;11.10;;;;;;;-142.75;100.00;79748.66;5068113;28;20017;-65
2021/12/17 02:11:49;;;;;;;41.92;11.57;;;;;;;-142.75;100.00;79750.66;5068348;28;20025;-65
2021/12/17 02:32:54;;;;;;;41.20;8.80;;;;;;;-142.75;100.00;79727.00;5068779;28;20062;-66
2021/12/17 02:37:47;;;;;;;57.15;10.13;;;;;;;-142.75;100.00;79727.00;5069096;28;20120;-67
2021/12/17 02:45:32;;;;;;;44.83;9.50;;;;;;;-142.75;100.00;79732.91;5069379;28;20036;-67
2021/12/17 02:48:27;;;;;;;72.00;10.73;;;;;;;-142.75;100.00;79732.91;5068644;28;20021;-67
2021/12/17 02:50:56;;;;;;;59.93;9.70;;;;;;;-142.75;100.00;79746.69;5062960;28;20067;-64
2021/12/17 02:53:23;;;;;;;56.23;10.10;;;;;;;-142.75;100.00;79744.72;5069090;28;20024;-67
2021/12/17 02:56:00;;;;;;;91.57;12.15;;;;;;;-142.75;100.00;79744.72;5068868;28;20131;-66
2021/12/17 02:58:28;;;;;;;60.43;11.73;;;;;;;-142.75;100.00;79748.66;5069149;28;20051;-66
2021/12/17 03:00:56;;;;;;;53.17;11.50;;;;;;;-142.75;100.00;79740.78;5067831;28;20059;-66
2021/12/17 03:03:25;;;;;;;119.53;13.10;;;;;;;-142.75;100.00;79744.72;5068994;28;20103;-66
2021/12/17 03:05:51;;;;;;;66.23;13.77;;;;;;;-142.75;100.00;79732.91;5068836;28;20486;-66
2021/12/17 03:08:17;;;;;;;41.80;13.65;;;;;;;-142.75;100.00;79728.97;5069221;28;20021;-66
2021/12/17 03:10:48;;;;;;;50.42;12.45;;;;;;;-142.75;100.00;79725.03;5068086;28;20032;-66
2021/12/17 03:13:17;;;;;;;76.63;15.03;;;;;;;-142.75;100.00;79727.00;5068669;28;20445;-66
2021/12/17 03:23:56;;;;;;;69.63;15.97;;;;;;;-142.75;100.00;79719.13;5072352;28;20173;-66
2021/12/17 03:26:24;;;;;;;67.38;16.65;;;;;;;-142.75;100.00;79727.00;5072595;28;20103;-66
2021/12/17 03:28:58;;;;;;;59.40;17.80;;;;;;;-142.75;100.00;79725.03;5072308;28;20025;-66
2021/12/17 03:31:25;;;;;;;59.03;18.47;;;;;;;-142.75;100.00;79728.97;5070461;28;20025;-66
2021/12/17 03:33:54;;;;;;;49.00;18.13;;;;;;;-142.75;100.00;79730.94;5071890;28;20059;-67
2021/12/17 03:36:20;;;;;;;55.97;20.77;;;;;;;-142.75;100.00;79736.84;5072442;28;20025;-67
2021/12/17 03:38:48;;;;;;;62.28;23.40;;;;;;;-142.75;100.00;79728.97;5072193;28;20113;-67
2021/12/17 03:41:19;;;;;;;68.63;21.70;;;;;;;-142.75;100.00;79723.06;5070083;28;20078;-67
2021/12/17 03:43:46;;;;;;;67.80;23.23;;;;;;;-142.75;100.00;79717.16;5072011;28;20109;-66
2021/12/17 03:46:11;;;;;;;65.55;23.95;;;;;;;-142.75;100.00;79703.38;5071882;28;20438;-67
2021/12/17 03:48:39;;;;;;;62.67;25.17;;;;;;;-142.75;100.00;79705.34;5071988;28;20478;-65
2021/12/17 03:51:10;;;;;;;57.58;23.42;;;;;;;-142.75;100.00;79697.44;5069882;28;20021;-66
2021/12/17 03:53:35;;;;;;;65.35;23.95;;;;;;;-142.75;100.00;79693.50;5071625;28;20390;-64
2021/12/17 03:56:01;;;;;;;67.05;23.35;;;;;;;-142.75;100.00;79697.44;5071845;28;20024;-68
2021/12/17 03:58:26;;;;;;;65.80;23.13;;;;;;;-142.75;100.00;79701.38;5072133;28;20031;-66
2021/12/17 04:00:51;;;;;;;58.75;23.27;;;;;;;-142.75;100.00;79685.63;5070573;28;20070;-65
2021/12/17 04:03:17;;;;;;;68.22;24.73;;;;;;;-142.75;100.00;79689.56;5071947;28;20518;-66
2021/12/17 04:05:42;;;;;;;61.17;23.52;;;;;;;-142.75;100.00;79691.53;5071609;28;20017;-66
2021/12/17 04:08:07;;;;;;;62.38;24.13;;;;;;;-142.75;100.00;79691.53;5070392;28;20084;-66
2021/12/17 04:10:40;;;;;;;62.85;23.80;;;;;;;-142.75;100.00;79687.59;5069763;28;20021;-67
2021/12/17 04:13:26;;;;;;;77.20;24.45;;;;;;;-142.75;100.00;79703.38;5071569;28;20035;-67
2021/12/17 04:15:58;;;;;;;68.85;24.73;;;;;;;-142.75;100.00;79707.31;5071255;28;20021;-65
2021/12/17 04:18:24;;;;;;;69.95;26.60;;;;;;;-142.75;100.00;79709.28;5071778;28;20078;-67
2021/12/17 04:20:50;;;;;;;;;;;;;;;-142.75;100.00;79695.47;5071109;28;20023;-67
2021/12/17 04:23:15;;;;;;;62.90;25.63;;;;;;;-142.75;100.00;79685.63;5070038;28;19912;-67
2021/12/17 04:25:41;;;;;;;72.53;28.25;;;;;;;-142.75;100.00;79677.75;5071363;28;20390;-67
2021/12/17 04:28:07;;;;;;;81.72;29.83;;;;;;;-142.75;100.00;79685.63;5071147;28;20020;-66
2021/12/17 04:30:32;;;;;;;70.65;30.15;;;;;;;-142.75;100.00;79675.78;5070683;28;20031;-67
2021/12/17 04:32:58;;;;;;;71.53;30.13;;;;;;;-142.75;100.00;79689.56;5069473;28;20154;-66
2021/12/17 04:35:23;;;;;;;;;;;;;;;-142.75;100.00;79685.63;5071645;28;20024;-67
2021/12/17 04:37:50;;;;;;;75.95;29.13;;;;;;;-142.75;100.00;79669.88;5071097;28;20273;-67
2021/12/17 04:40:16;;;;;;;;;;;;;;;-142.75;100.00;79677.75;5070708;28;20020;-66
2021/12/17 04:42:55;;;;;;;74.68;29.50;;;;;;;-142.75;100.00;79677.75;5069505;28;20373;-66
2021/12/17 04:45:21;;;;;;;74.70;29.98;;;;;;;-142.75;100.00;79669.88;5071186;28;20497;-66
2021/12/17 04:58:50;;;;;;;84.22;33.15;;;;;;;-142.75;100.00;79671.84;5070905;28;20075;-67
2021/12/17 05:01:16;;;;;;;72.30;30.13;;;;;;;-142.75;100.00;79683.66;5069741;28;20081;-67
2021/12/17 05:03:41;;;;;;;;;;;;;;;-142.75;100.00;79677.75;5070930;28;20028;-67
2021/12/17 05:06:07;;;;;;;89.55;29.83;;;;;;;-142.75;100.00;79683.66;5070467;28;19958;-67
2021/12/17 05:08:33;;;;;;;87.03;31.50;;;;;;;-142.75;100.00;79689.56;5070773;28;20048;-66
2021/12/17 05:21:43;;;;;;;41.35;21.60;;;;;;;-142.75;100.00;79675.78;5070543;28;20086;-66
2021/12/17 05:24:09;;;;;;;47.60;22.17;;;;;;;-142.75;100.00;79681.69;5068695;28;20478;-66
2021/12/17 05:26:34;;;;;;;50.83;23.15;;;;;;;-142.75;100.00;79681.69;5069079;28;20032;-66
2021/12/17 05:28:59;;;;;;;48.00;20.23;;;;;;;-142.75;100.00;79679.72;5068481;28;20082;-66
2021/12/17 05:31:25;;;;;;;48.60;19.70;;;;;;;-142.75;100.00;79673.81;5069435;28;20274;-66
2021/12/17 05:33:52;;;;;;;36.72;19.10;;;;;;;-142.75;100.00;79681.69;5069342;28;20775;-66
2021/12/17 05:36:18;;;;;;;35.50;17.67;;;;;;;-142.75;100.00;79701.38;5070221;28;20566;-67
2021/12/17 05:38:43;;;;;;;;;;;;;;;-142.75;100.00;79699.41;5070224;28;20033;-66
2021/12/17 05:41:09;;;;;;;38.70;18.17;;;;;;;-142.75;100.00;79701.38;5068974;28;20370;-67
2021/12/17 05:43:38;;;;;;;34.08;17.92;;;;;;;-142.75;100.00;79687.59;5069371;28;20390;-67
2021/12/17 05:46:10;;;;;;;33.35;18.67;;;;;;;-142.75;100.00;79701.38;5069648;28;20107;-66
2021/12/17 05:48:35;;;;;;;32.90;18.00;;;;;;;-142.75;100.00;79709.28;5069823;28;20032;-65
2021/12/17 05:51:04;;;;;;;33.30;18.27;;;;;;;-142.75;100.00;79711.25;5068913;28;20048;-66
2021/12/17 05:53:29;;;;;;;32.67;17.63;;;;;;;-142.75;100.00;79707.31;5069524;28;20103;-67
2021/12/17 05:55:56;;;;;;;29.48;16.92;;;;;;;-142.75;100.00;79719.13;5069164;28;20107;-67
2021/12/17 05:58:22;;;;;;;29.48;16.25;;;;;;;-142.75;100.00;79717.16;5069820;28;20028;-67
2021/12/17 06:00:48;;;;;;;29.67;16.17;;;;;;;-142.75;100.00;79719.13;5068784;28;20066;-66
2021/12/17 06:03:13;;;;;;;27.55;15.85;;;;;;;-142.75;100.00;79736.84;5069410;28;20081;-66
2021/12/17 06:05:39;;;;;;;25.73;15.25;;;;;;;-142.75;100.00;79750.66;5068205;28;20078;-67
2021/12/17 06:08:05;;;;;;;29.45;16.17;;;;;;;-142.75;100.00;79760.50;5068048;28;20623;-67
2021/12/17 06:10:31;;;;;;;29.88;16.20;;;;;;;-142.75;100.00;79778.22;5069085;28;20048;-67
2021/12/17 06:12:56;;;;;;;26.80;14.85;;;;;;;-142.75;100.00;79784.13;5068890;28;20086;-66
2021/12/17 06:15:22;;;;;;;30.70;14.60;;;;;;;-142.75;100.00;79793.97;5069541;28;20497;-66
2021/12/17 06:17:48;;;;;;;29.38;15.57;;;;;;;-142.75;100.00;79799.91;5068095;28;20033;-66
2021/12/17 06:20:15;;;;;;;28.23;15.93;;;;;;;-142.75;100.00;79805.81;5068487;28;20609;-67
2021/12/17 06:22:41;;;;;;;34.00;17.05;;;;;;;-142.75;100.00;79805.81;5069032;28;20718;-67
2021/12/17 06:25:08;;;;;;;33.30;15.75;;;;;;;-142.75;100.00;79801.88;5069281;28;20024;-67
2021/12/17 06:27:35;;;;;;;30.77;15.95;;;;;;;-142.75;100.00;79811.72;5068095;28;20024;-67
2021/12/17 06:30:02;;;;;;;34.10;15.35;;;;;;;-142.75;100.00;79811.72;5068332;28;20048;-66
2021/12/17 06:32:27;;;;;;;30.95;14.80;;;;;;;-142.75;100.00;79813.69;5069278;28;20493;-65
2021/12/17 06:34:53;;;;;;;34.08;16.35;;;;;;;-142.75;100.00;79801.88;5068690;28;20100;-66
2021/12/17 06:37:20;;;;;;;32.45;15.75;;;;;;;-142.75;100.00;79805.81;5069310;28;20127;-67
2021/12/17 06:39:46;;;;;;;36.80;15.43;;;;;;;-142.75;100.00;79801.88;5067238;28;20020;-66
2021/12/17 06:42:12;;;;;;;31.10;14.88;;;;;;;-142.75;100.00;79807.78;5068860;28;20024;-67
2021/12/17 06:44:39;;;;;;;35.33;16.40;;;;;;;-142.75;100.00;79807.78;5069043;28;20390;-66
2021/12/17 06:49:58;;;;;;;39.92;15.95;;;;;;;-142.75;100.00;79799.91;5069517;28;20028;-67
2021/12/17 06:55:38;;;;;;;39.00;16.67;;;;;;;-142.75;100.00;79790.03;5068708;28;20089;-66
2021/12/17 07:06:14;;;;;;;47.85;17.85;;;;;;;-142.75;100.00;79801.88;5073080;28;20111;-67
2021/12/17 07:24:50;;;;;;;39.05;16.48;;;;;;;-142.75;100.00;79778.22;5072899;28;20315;-67
2021/12/17 07:40:07;;;;;;;39.87;15.80;;;;;;;-142.75;100.00;79768.38;5071262;28;20406;-67
2021/12/17 07:42:33;;;;;;;40.63;16.02;;;;;;;-142.75;100.00;79760.50;5071095;28;20103;-66
2021/12/17 07:44:58;;;;;;;41.80;15.98;;;;;;;-142.75;100.00;79776.25;5070399;28;20042;-66
2021/12/17 07:47:25;;;;;;;37.40;15.07;;;;;;;-142.75;100.00;79764.44;5072351;28;20036;-67
2021/12/17 07:49:50;;;;;;;36.93;15.17;;;;;;;-142.75;100.00;79758.53;5071043;28;20059;-66
2021/12/17 07:52:15;;;;;;;33.22;14.80;;;;;;;-142.75;100.00;79758.53;5071627;28;20471;-65
2021/12/17 07:54:41;;;;;;;40.25;15.93;;;;;;;-142.75;100.00;79760.50;5070456;28;20104;-67
2021/12/17 07:57:06;;;;;;;36.17;14.70;;;;;;;-142.75;100.00;79760.50;5071726;28;20489;-66
2021/12/17 07:59:32;;;;;;;39.90;16.23;;;;;;;-142.75;100.00;79760.50;5069382;28;20521;-66
2021/12/17 08:01:57;;;;;;;36.40;15.63;;;;;;;-142.75;100.00;79754.59;5061297;28;20437;-65
2021/12/17 08:04:23;;;;;;;38.28;15.25;;;;;;;-142.75;100.00;79760.50;5051153;28;20368;-66
2021/12/17 08:06:48;;;;;;;33.85;14.30;;;;;;;-142.75;100.00;79766.41;5049983;28;20051;-66
2021/12/17 08:09:14;;;;;;;34.88;15.02;;;;;;;-142.75;100.00;79752.63;5050812;28;20035;-66
2021/12/17 08:11:40;;;;;;;32.10;14.70;;;;;;;-142.75;100.00;79754.59;5048796;28;20032;-67
2021/12/17 08:14:11;;;;;;;35.90;14.48;;;;;;;-142.75;100.00;79768.38;5050176;28;20017;-66
2021/12/17 08:16:45;;;;;;;30.13;13.27;;;;;;;-142.75;100.00;79762.47;5050535;28;20556;-66
2021/12/17 08:24:55;;;;;;;29.77;13.27;;;;;;;-142.75;100.00;79752.63;5050606;28;20539;-66
2021/12/17 08:30:38;;;;;;;32.60;13.35;;;;;;;-142.75;100.00;79768.38;5049191;28;20037;-66
2021/12/17 08:32:36;;;;;;;28.95;13.15;;;;;;;-142.75;100.00;79756.56;5046094;28;20036;-66
2021/12/17 08:35:02;;;;;;;32.25;13.75;;;;;;;-142.75;100.00;79746.69;5050068;28;20078;-66
2021/12/17 08:37:28;;;;;;;31.30;13.07;;;;;;;-142.75;100.00;79754.59;5050502;28;20068;-66
2021/12/17 08:39:54;;;;;;;34.97;14.15;;;;;;;-142.75;100.00;79748.66;5048956;28;20078;-67
2021/12/17 08:42:19;;;;;;;35.63;14.48;;;;;;;-142.75;100.00;79764.44;5049105;28;20433;-66
2021/12/17 08:44:44;;;;;;;36.83;15.63;;;;;;;-142.75;100.00;79764.44;5050014;28;20787;-67
2021/12/17 08:47:10;;;;;;;34.78;15.00;;;;;;;-142.75;100.00;79744.72;5050043;28;20025;-66
2021/12/17 08:49:39;;;;;;;36.28;14.85;;;;;;;-142.75;100.00;79742.75;5050108;28;20070;-66
2021/12/17 08:52:05;;;;;;;34.00;13.57;;;;;;;-142.75;100.00;79736.84;5049739;28;20047;-68
2021/12/17 08:54:30;;;;;;;30.05;13.68;;;;;;;-142.75;100.00;79717.16;5049993;28;20017;-66
2021/12/17 08:56:56;;;;;;;30.87;12.90;;;;;;;-142.75;100.00;79717.16;5049328;28;20784;-66
2021/12/17 08:59:21;;;;;;;29.67;12.57;;;;;;;-142.75;100.00;79711.25;5049317;28;20264;-66
2021/12/17 09:01:46;;;;;;;28.60;13.05;;;;;;;-142.75;100.00;79713.22;5049125;28;20020;-66
2021/12/17 09:04:13;;;;;;;29.35;13.38;;;;;;;-142.75;100.00;79711.25;5049557;28;20025;-66
2021/12/17 09:06:39;;;;;;;29.85;12.30;;;;;;;-142.75;100.00;79713.22;5049418;28;20028;-67
2021/12/17 09:09:05;;;;;;;26.58;12.75;;;;;;;-142.75;100.00;79723.06;5048370;28;20021;-66
2021/12/17 09:11:30;;;;;;;32.17;13.27;;;;;;;-142.75;100.00;79719.13;5049014;28;20712;-67
2021/12/17 09:13:59;;;;;;;28.02;12.20;;;;;;;-142.75;100.00;79721.09;5047645;28;20032;-67
2021/12/17 09:16:25;;;;;;;32.10;12.38;;;;;;;-142.75;100.00;79715.19;5049818;28;20024;-65
2021/12/17 09:18:52;;;;;;;23.73;12.32;;;;;;;-142.75;100.00;79721.09;5047152;28;20025;-67
2021/12/17 09:21:18;;;;;;;26.30;11.68;;;;;;;-142.75;100.00;79732.91;5048867;28;20110;-66
2021/12/17 09:23:44;;;;;;;23.80;11.18;;;;;;;-142.75;100.00;79728.97;5049115;28;20060;-66
2021/12/17 09:26:10;;;;;;;23.88;11.80;;;;;;;-142.75;100.00;79721.09;5047948;28;20029;-66
2021/12/17 09:28:36;;;;;;;27.13;11.57;;;;;;;-142.75;100.00;79719.13;5064624;28;20024;-66
2021/12/17 09:31:01;;;;;;;24.42;11.13;;;;;;;-142.75;100.00;79717.16;5068400;28;20401;-66
2021/12/17 09:33:27;;;;;;;23.98;10.68;;;;;;;-142.75;100.00;79732.91;5068975;28;20103;-66
2021/12/17 09:35:52;;;;;;;23.27;9.93;;;;;;;-142.75;100.00;79732.91;5066802;28;20055;-65
2021/12/17 09:38:19;;;;;;;21.05;10.20;;;;;;;-142.75;100.00;79728.97;5049233;28;20032;-67
2021/12/17 09:40:44;;;;;;;24.27;10.90;;;;;;;-142.75;100.00;79723.06;5045511;28;20028;-67
2021/12/17 09:43:10;;;;;;;21.00;10.15;;;;;;;-142.75;100.00;79721.09;5052679;28;20528;-66
2021/12/17 09:45:36;;;;;;;;;;;;;;;-142.75;100.00;79721.09;5069241;28;20108;-67
2021/12/17 09:48:02;;;;;;;22.20;10.00;;;;;;;-142.75;100.00;79723.06;5067412;28;19995;-66
2021/12/17 09:50:28;;;;;;;21.75;10.18;;;;;;;-142.75;100.00;79725.03;5068153;28;20486;-67
2021/12/17 09:52:53;;;;;;;24.38;10.77;;;;;;;-142.75;100.00;79728.97;5068386;28;20099;-66
2021/12/17 09:55:19;;;;;;;22.60;10.63;;;;;;;-142.75;100.00;79728.97;5068735;28;20142;-67
2021/12/17 09:57:45;;;;;;;18.95;10.15;;;;;;;-142.75;100.00;79723.06;5068657;28;20044;-66
2021/12/17 10:00:15;;;;;;;20.88;10.32;;;;;;;-142.75;100.00;79728.97;5067798;28;20032;-67
2021/12/17 10:02:44;;;;;;;23.63;10.50;;;;;;;-142.75;100.00;79721.09;5068416;28;20121;-67
2021/12/17 10:05:13;;;;;;;24.77;12.73;;;;;;;-142.75;100.00;79717.16;5068347;28;20470;-67
2021/12/17 10:07:41;;;;;;;19.42;10.45;;;;;;;-142.75;100.00;79721.09;5068546;28;20405;-66
2021/12/17 10:10:07;;;;;;;16.70;9.50;;;;;;;-142.75;100.00;79740.78;5049342;28;20040;-67
2021/12/17 10:12:35;;;;;;;15.73;8.20;;;;;;;-142.75;100.00;79736.84;5046324;28;20029;-66
2021/12/17 10:15:20;;;;;;;17.73;9.35;;;;;;;-142.75;100.00;79728.97;5061383;28;20052;-66
2021/12/17 10:18:00;;;;;;;18.77;9.18;;;;;;;-142.75;100.00;79752.63;5067940;28;20622;-67
2021/12/17 10:20:27;;;;;;;17.15;8.38;;;;;;;-142.75;100.00;79738.81;5066647;28;20082;-67
2021/12/17 10:23:06;;;;;;;16.50;8.68;;;;;;;-142.75;100.00;79732.91;5067725;28;20111;-66
2021/12/17 10:25:33;;;;;;;16.73;7.75;;;;;;;-142.75;100.00;79728.97;5067190;28;20385;-67
2021/12/17 10:28:03;;;;;;;14.95;8.10;;;;;;;-142.75;100.00;79728.97;5067699;28;20089;-66
2021/12/17 10:30:30;;;;;;;14.23;7.75;;;;;;;-142.75;100.00;79730.94;5067304;28;20036;-67
2021/12/17 10:32:58;;;;;;;14.45;6.95;;;;;;;-142.75;100.00;79727.00;5066118;28;20024;-66
2021/12/17 10:35:26;;;;;;;9.98;5.03;;;;;;;-142.75;100.00;79734.88;5066763;28;20020;-67
2021/12/17 10:37:56;;;;;;;8.13;4.28;;;;;;;-142.75;100.00;79738.81;5067558;28;20443;-66
2021/12/17 10:40:32;;;;;;;8.50;3.58;;;;;;;-142.75;100.00;79750.66;5066225;28;20567;-65
2021/12/17 10:43:06;;;;;;;5.90;3.20;;;;;;;-142.75;100.00;79748.66;5067583;28;20090;-66
2021/12/17 10:45:43;;;;;;;9.05;4.00;;;;;;;-142.75;100.00;79734.88;5058143;28;20025;-67
2021/12/17 10:48:32;;;;;;;11.95;4.63;;;;;;;-142.75;100.00;79725.03;5047886;28;20167;-66
2021/12/17 10:51:18;;;;;;;9.23;4.65;;;;;;;-142.75;100.00;79744.72;5047043;28;20025;-66
2021/12/17 10:53:54;;;;;;;7.75;4.47;;;;;;;-142.75;100.00;79764.44;5047926;28;20044;-67
2021/12/17 10:56:21;;;;;;;8.50;5.05;;;;;;;-142.75;100.00;79762.47;5048393;28;20036;-67
2021/12/17 10:59:02;;;;;;;7.53;4.35;;;;;;;-142.75;100.00;79776.25;5047732;28;20098;-66
2021/12/17 11:01:31;;;;;;;5.20;2.33;;;;;;;-142.75;100.00;79772.31;5047641;28;20025;-66
2021/12/17 11:04:10;;;;;;;5.75;3.00;;;;;;;-142.75;100.00;79762.47;5047545;28;20054;-66
2021/12/17 11:07:09;;;;;;;4.73;2.73;;;;;;;-142.75;100.00;79770.34;5048007;28;20052;-66
2021/12/17 11:09:39;;;;;;;4.25;2.13;;;;;;;-142.75;100.00;79760.50;5040965;28;20040;-67
2021/12/17 11:12:12;;;;;;;4.10;2.38;;;;;;;-142.75;100.00;79752.63;5047187;28;20448;-67
2021/12/17 11:14:38;;;;;;;5.57;2.90;;;;;;;-142.75;100.00;79770.34;5047769;28;20211;-66
2021/12/17 11:17:04;;;;;;;6.63;3.78;;;;;;;-142.75;100.00;79756.56;5047912;28;20108;-66
2021/12/17 11:19:31;;;;;;;5.18;3.08;;;;;;;-142.75;100.00;79744.72;5048120;28;20059;-66
2021/12/17 11:21:57;;;;;;;7.63;3.63;;;;;;;-142.75;100.00;79740.78;5043020;28;20047;-68
2021/12/17 11:24:23;;;;;;;;;;;;;;;-142.75;100.00;79715.19;5047362;28;20055;-68
2021/12/17 11:26:49;;;;;;;5.85;3.20;;;;;;;-142.75;100.00;79717.16;5045910;28;19920;-68
2021/12/17 11:29:17;;;;;;;5.97;2.97;;;;;;;-142.75;100.00;79727.00;5047641;28;20482;-67
2021/12/17 11:31:43;;;;;;;6.63;3.70;;;;;;;-142.75;100.00;79752.63;5046866;28;20051;-68
2021/12/17 11:34:09;;;;;;;8.38;4.22;;;;;;;-142.75;100.00;79760.50;5051561;28;20479;-67
2021/12/17 11:36:34;;;;;;;6.70;4.05;;;;;;;-142.75;100.00;79742.75;5064816;28;20032;-65
2021/12/17 11:39:09;;;;;;;7.50;3.85;;;;;;;-142.75;100.00;79740.78;5058117;28;20021;-65
2021/12/17 11:41:53;;;;;;;6.45;3.60;;;;;;;-142.75;100.00;79719.13;5065733;28;20398;-67
2021/12/17 11:44:20;;;;;;;7.07;4.32;;;;;;;-142.75;100.00;79725.03;5070157;28;20440;-67
2021/12/17 11:47:01;;;;;;;8.02;4.05;;;;;;;-142.75;100.00;79728.97;5071005;28;20074;-66
2021/12/17 11:49:29;;;;;;;8.13;4.68;;;;;;;-142.75;100.00;79730.94;5052212;28;20399;-67
2021/12/17 11:51:55;;;;;;;6.70;3.55;;;;;;;-142.75;100.00;79728.97;5054826;28;20103;-67
2021/12/17 11:54:28;;;;;;;;;;;;;;;-142.75;100.00;79717.16;5071515;28;20403;-67
2021/12/17 11:56:54;;;;;;;7.35;3.78;;;;;;;-142.75;100.00;79725.03;5070454;28;19916;-68
2021/12/17 11:59:23;;;;;;;9.32;4.80;;;;;;;-142.75;100.00;79738.81;5071083;28;20498;-66
2021/12/17 12:02:02;;;;;;;8.18;4.70;;;;;;;-142.75;100.00;79736.84;5070141;28;20527;-67
2021/12/17 12:04:34;;;;;;;8.68;4.97;;;;;;;-142.75;100.00;79732.91;5070832;28;20080;-68
2021/12/17 12:07:01;;;;;;;7.22;4.22;;;;;;;-142.75;100.00;79732.91;5054887;28;20031;-67
2021/12/17 12:09:54;;;;;;;6.78;3.85;;;;;;;-142.75;100.00;79746.69;5050842;28;20036;-67
2021/12/17 12:12:20;;;;;;;6.15;3.55;;;;;;;-142.75;100.00;79744.72;5049602;28;20486;-65
2021/12/17 12:14:45;;;;;;;5.70;3.60;;;;;;;-142.75;100.00;79732.91;5050103;28;20025;-67
2021/12/17 12:17:10;;;;;;;8.40;4.35;;;;;;;-142.75;100.00;79728.97;5042034;22;20481;-66
2021/12/17 12:19:49;;;;;;;6.30;3.63;;;;;;;-142.75;100.00;79738.81;4991242;28;20022;-68
2021/12/17 12:22:29;;;;;;;6.93;3.72;;;;;;;-142.75;100.00;79740.78;4991415;28;20030;-67
2021/12/17 12:25:29;;;;;;;6.22;3.38;;;;;;;-142.75;100.00;79738.81;4988937;28;20042;-67
2021/12/17 12:27:55;;;;;;;6.05;3.90;;;;;;;-142.75;100.00;79732.91;4991720;28;20030;-68
2021/12/17 12:30:42;;;;;;;6.50;4.05;;;;;;;-142.75;100.00;79744.72;4991356;28;20160;-69
2021/12/17 12:33:08;;;;;;;;;;;;;;;-142.75;100.00;79758.53;4992372;28;20026;-68
2021/12/17 12:35:34;;;;;;;6.97;3.60;;;;;;;-142.75;100.00;79752.63;4990850;28;19914;-68
2021/12/17 12:38:12;;;;;;;6.60;3.80;;;;;;;-142.75;100.00;79758.53;4990121;28;20045;-68
2021/12/17 12:40:44;;;;;;;6.80;4.32;;;;;;;-142.75;100.00;79762.47;4991018;28;20037;-68
2021/12/17 12:43:25;;;;;;;7.95;4.63;;;;;;;-142.75;100.00;79776.25;4991669;28;20069;-68
2021/12/17 12:45:50;;;;;;;8.07;4.43;;;;;;;-142.75;100.00;79788.06;4991209;28;20018;-68
2021/12/17 12:48:36;;;;;;;8.82;5.32;;;;;;;-142.75;100.00;79795.94;4989707;28;20038;-67
2021/12/17 12:51:22;;;;;;;10.35;4.40;;;;;;;-142.75;100.00;79788.06;4990874;28;20041;-67
2021/12/17 12:54:09;;;;;;;9.05;5.20;;;;;;;-142.75;100.00;79780.19;4991037;28;20408;-67
2021/12/17 12:56:38;;;;;;;11.30;4.78;;;;;;;-142.75;100.00;79782.16;4991678;28;20026;-68
2021/12/17 12:59:06;;;;;;;9.85;5.07;;;;;;;-142.75;100.00;79764.44;4989892;28;20378;-68
2021/12/17 13:01:31;;;;;;;7.87;4.93;;;;;;;-142.75;100.00;79758.53;4990897;28;20409;-68
2021/12/17 13:03:57;;;;;;;8.38;5.03;;;;;;;-142.75;100.00;79746.69;4991054;28;20029;-68
2021/12/17 13:06:23;;;;;;;8.70;5.00;;;;;;;-142.75;100.00;79746.69;4990307;28;20041;-68
2021/12/17 13:08:53;;;;;;;;;;;;;;;-142.75;100.00;79740.78;4990733;28;20411;-68
2021/12/17 13:11:19;;;;;;;8.45;4.28;;;;;;;-142.75;100.00;79728.97;4990738;28;19914;-68
2021/12/17 13:13:57;;;;;;;8.50;4.97;;;;;;;-142.75;100.00;79732.91;4991199;28;20365;-68
2021/12/17 13:21:48;;;;;;;7.22;4.05;;;;;;;-142.75;100.00;79734.88;4990197;28;20092;-68
2021/12/17 13:24:17;;;;;;;7.72;4.35;;;;;;;-142.75;100.00;79744.72;4990695;28;20018;-68
2021/12/17 13:26:53;;;;;;;7.57;4.22;;;;;;;-142.75;100.00;79740.78;4990892;28;20069;-67
2021/12/17 13:29:21;;;;;;;7.77;4.57;;;;;;;-142.75;100.00;79746.69;4991356;28;20437;-67
2021/12/17 13:31:49;;;;;;;5.85;3.58;;;;;;;-142.75;100.00;79752.63;4990001;28;20025;-68
2021/12/17 13:34:22;;;;;;;7.00;4.18;;;;;;;-142.75;100.00;79764.44;4990846;28;20029;-69
2021/12/17 13:36:56;;;;;;;7.65;4.68;;;;;;;-142.75;100.00;79772.31;4990917;28;20400;-66
2021/12/17 13:39:24;;;;;;;7.30;4.43;;;;;;;-142.75;100.00;79768.38;4990639;28;20054;-67
2021/12/17 13:41:51;;;;;;;7.70;4.70;;;;;;;-142.75;100.00;79764.44;4991052;28;20104;-67
